Time;durP1;ratioP1;P1;durP2;ratioP2;P2;SDS_P1;SDS_P2;PMS_P1;PMS_P2;Temp;Humidity;BMP_temperature;BMP_pressure;BME280_temperature;BME280_humidity;BME280_pressure;Samples;Min_cycle;Max_cycle;Signal;HPM_P1;HPM_P2
2022/12/13 00:01:14;;;;;;;20.80;14.37;;;0.30;99.90;;;;;;5036102;28;20406;-36
2022/12/13 00:03:39;;;;;;;17.27;12.40;;;0.30;99.90;;;;;;5033584;28;20194;-35
2022/12/13 00:06:06;;;;;;;18.47;12.60;;;0.30;99.90;;;;;;5029943;28;20419;-37
2022/12/13 00:08:32;;;;;;;24.00;14.47;;;0.40;99.90;;;;;;5033486;28;20200;-34
2022/12/13 00:10:59;;;;;;;23.50;15.77;;;0.50;99.90;;;;;;5050389;28;20403;-35
2022/12/13 00:13:27;;;;;;;20.57;15.00;;;0.50;99.90;;;;;;5042376;28;20185;-37
2022/12/13 00:16:01;;;;;;;19.23;13.60;;;0.20;99.90;;;;;;5039111;28;20479;-36
2022/12/13 00:18:27;;;;;;;23.77;15.03;;;0.40;99.90;;;;;;5028148;28;20975;-34
2022/12/13 00:20:53;;;;;;;19.93;14.20;;;0.50;99.90;;;;;;5030779;28;20421;-32
2022/12/13 00:23:19;;;;;;;20.97;13.50;;;0.20;99.90;;;;;;5030226;28;20862;-38
2022/12/13 00:25:46;;;;;;;19.70;13.83;;;0.50;99.90;;;;;;5030742;28;20495;-32
2022/12/13 00:28:12;;;;;;;22.47;15.17;;;0.30;99.90;;;;;;5032175;28;20428;-36
2022/12/13 00:30:38;;;;;;;21.80;13.70;;;0.30;99.90;;;;;;5030080;28;20465;-33
2022/12/13 00:33:05;;;;;;;20.30;13.97;;;0.20;99.90;;;;;;5029941;28;20487;-36
2022/12/13 00:35:32;;;;;;;20.90;12.57;;;0.40;99.90;;;;;;5030265;28;20436;-36
2022/12/13 00:37:57;;;;;;;21.53;14.03;;;0.50;99.90;;;;;;5030370;28;20433;-33
2022/12/13 00:40:23;;;;;;;21.20;13.17;;;0.30;99.90;;;;;;5029687;28;20451;-31
2022/12/13 00:42:49;;;;;;;18.77;13.23;;;0.10;99.90;;;;;;5030034;28;20244;-33
2022/12/13 00:45:15;;;;;;;21.37;13.33;;;0.50;99.90;;;;;;5029914;28;20993;-33
2022/12/13 00:47:40;;;;;;;23.17;13.70;;;0.40;99.90;;;;;;5029823;28;20199;-38
2022/12/13 00:50:06;;;;;;;22.30;13.87;;;0.30;99.90;;;;;;5029565;28;20241;-35
2022/12/13 00:52:35;;;;;;;16.53;10.93;;;0.40;99.90;;;;;;5030485;28;20201;-37
2022/12/13 00:55:00;;;;;;;20.97;13.50;;;0.30;99.90;;;;;;5028585;28;20433;-32
2022/12/13 00:57:26;;;;;;;18.10;12.70;;;0.30;99.90;;;;;;5029796;28;20428;-37
2022/12/13 00:59:52;;;;;;;19.77;13.03;;;0.30;99.90;;;;;;5029725;28;20584;-35
2022/12/13 01:02:17;;;;;;;17.57;12.90;;;0.40;99.90;;;;;;5029367;28;20195;-32
2022/12/13 01:04:43;;;;;;;18.10;13.23;;;0.30;99.90;;;;;;5028235;28;20202;-38
2022/12/13 01:07:09;;;;;;;22.50;13.70;;;0.40;99.90;;;;;;5028053;28;20615;-37
2022/12/13 01:09:34;;;;;;;19.97;12.23;;;0.50;99.90;;;;;;5042622;28;20672;-36
2022/12/13 01:12:05;;;;;;;20.70;13.20;;;0.50;99.90;;;;;;5048087;28;20189;-32
2022/12/13 01:14:33;;;;;;;17.70;12.83;;;0.50;99.90;;;;;;5049204;28;20182;-33
2022/12/13 01:16:59;;;;;;;20.70;13.00;;;0.30;99.90;;;;;;5049255;28;20709;-33
2022/12/13 01:19:26;;;;;;;20.43;13.73;;;0.10;99.90;;;;;;5049066;28;20432;-33
2022/12/13 01:22:01;;;;;;;18.37;12.70;;;0.10;99.90;;;;;;5049501;28;20606;-36
2022/12/13 01:24:28;;;;;;;21.67;14.27;;;0.10;99.90;;;;;;5049144;28;20431;-35
2022/12/13 01:26:54;;;;;;;18.40;12.40;;;0.30;99.90;;;;;;5049297;28;20402;-32
2022/12/13 01:29:21;;;;;;;19.90;12.27;;;0.20;99.90;;;;;;5033395;28;20457;-39
2022/12/13 01:31:48;;;;;;;19.20;13.30;;;0.20;99.90;;;;;;5029082;28;20733;-35
2022/12/13 01:34:17;;;;;;;23.20;14.13;;;0.20;99.90;;;;;;5029250;28;20445;-32
2022/12/13 01:36:43;;;;;;;20.10;13.27;;;0.20;99.90;;;;;;5028843;28;20631;-36
2022/12/13 01:39:11;;;;;;;18.63;13.33;;;0.00;99.90;;;;;;5036302;28;20436;-36
2022/12/13 01:41:37;;;;;;;19.87;12.57;;;0.30;99.90;;;;;;5048622;28;20417;-34
2022/12/13 01:44:05;;;;;;;19.23;13.13;;;0.10;99.90;;;;;;5048975;28;20420;-33
2022/12/13 01:46:33;;;;;;;19.60;13.23;;;0.10;99.90;;;;;;5048817;28;20395;-36
2022/12/13 01:49:08;;;;;;;18.77;12.43;;;0.00;99.90;;;;;;5048868;28;20673;-38
2022/12/13 01:51:46;;;;;;;29.47;13.37;;;0.10;99.90;;;;;;5048940;28;20412;-36
2022/12/13 01:54:16;;;;;;;23.67;15.07;;;0.00;99.90;;;;;;5048345;28;20375;-37
2022/12/13 01:56:47;;;;;;;21.73;14.27;;;0.00;99.90;;;;;;5048674;28;20400;-35
2022/12/13 01:59:15;;;;;;;20.97;14.60;;;0.10;99.90;;;;;;5048273;28;20477;-37
2022/12/13 02:01:41;;;;;;;21.07;13.93;;;0.00;99.90;;;;;;5048703;28;20416;-35
2022/12/13 02:04:07;;;;;;;20.07;13.57;;;0.10;99.90;;;;;;5048317;28;20462;-35
2022/12/13 02:06:37;;;;;;;20.53;13.90;;;0.00;99.90;;;;;;5048664;28;20838;-33
2022/12/13 02:09:05;;;;;;;23.60;15.33;;;0.10;99.90;;;;;;5046375;28;20205;-36
2022/12/13 02:11:34;;;;;;;21.50;14.00;;;0.10;99.90;;;;;;5048562;28;20404;-35
2022/12/13 02:13:59;;;;;;;20.00;13.33;;;0.10;99.90;;;;;;5048461;28;20870;-32
2022/12/13 02:16:31;;;;;;;20.90;13.43;;;-0.10;99.90;;;;;;5048048;28;20383;-35
2022/12/13 02:19:22;;;;;;;19.40;13.80;;;0.00;99.90;;;;;;5048574;28;20256;-33
2022/12/13 02:22:16;;;;;;;20.77;13.67;;;0.10;99.90;;;;;;5048054;28;20458;-35
2022/12/13 02:24:45;;;;;;;22.30;13.50;;;-0.10;99.90;;;;;;5039218;28;20949;-34
2022/12/13 02:27:36;;;;;;;25.37;14.37;;;-0.20;99.90;;;;;;5047511;28;20414;-35
2022/12/13 02:30:23;;;;;;;20.30;12.63;;;-0.20;99.90;;;;;;5017888;28;20852;-35
2022/12/13 02:32:59;;;;;;;18.90;12.87;;;-0.10;99.90;;;;;;5027674;28;20421;-32
2022/12/13 02:35:36;;;;;;;18.50;14.03;;;-0.20;99.90;;;;;;5028585;28;20420;-38
2022/12/13 02:38:26;;;;;;;22.60;13.90;;;-0.10;99.90;;;;;;5027910;28;20409;-37
2022/12/13 02:41:07;;;;;;;18.03;12.30;;;-0.40;99.90;;;;;;5028261;28;20753;-36
2022/12/13 02:43:41;;;;;;;24.50;13.00;;;-0.20;99.90;;;;;;5027474;28;20393;-38
2022/12/13 02:46:08;;;;;;;19.80;13.10;;;-0.30;99.90;;;;;;5028623;28;20824;-36
2022/12/13 02:48:39;;;;;;;19.73;12.67;;;-0.30;99.90;;;;;;5027107;28;20822;-30
2022/12/13 02:51:08;;;;;;;19.70;13.30;;;-0.30;99.90;;;;;;5035131;28;20416;-35
2022/12/13 02:53:35;;;;;;;19.40;13.20;;;-0.30;99.90;;;;;;5047821;28;20834;-34
2022/12/13 02:56:01;;;;;;;17.90;13.00;;;-0.40;99.90;;;;;;5047439;28;20511;-36
2022/12/13 02:58:33;;;;;;;23.37;13.63;;;-0.40;99.90;;;;;;5047499;28;20547;-34
2022/12/13 03:01:42;;;;;;;24.63;14.70;;;-0.50;99.90;;;;;;5045544;28;20653;-37
2022/12/13 03:04:14;;;;;;;21.03;12.63;;;-0.40;99.90;;;;;;5047467;28;20557;-35
2022/12/13 03:06:56;;;;;;;19.87;12.63;;;-0.40;99.90;;;;;;5047016;28;20422;-38
2022/12/13 03:09:40;;;;;;;20.43;12.83;;;-0.30;99.90;;;;;;5046751;28;20448;-35
2022/12/13 03:15:48;;;;;;;20.57;13.30;;;-0.30;99.90;;;;;;5024049;28;20583;-35
2022/12/13 03:18:17;;;;;;;20.83;13.20;;;-0.20;99.90;;;;;;5024091;28;20521;-34
2022/12/13 03:20:52;;;;;;;22.03;13.40;;;-0.20;99.90;;;;;;5041082;28;20964;-34
2022/12/13 03:23:19;;;;;;;21.20;13.50;;;-0.30;99.90;;;;;;5046928;28;20801;-35
2022/12/13 03:25:49;;;;;;;20.67;13.67;;;-0.20;99.90;;;;;;5047751;28;20387;-36
2022/12/13 03:28:15;;;;;;;21.23;13.63;;;-0.40;99.90;;;;;;5047437;28;20785;-31
2022/12/13 03:30:41;;;;;;;19.90;13.70;;;-0.40;99.90;;;;;;5046406;28;20460;-34
2022/12/13 03:33:06;;;;;;;21.00;14.00;;;-0.40;99.90;;;;;;5047133;28;20192;-35
2022/12/13 03:35:32;;;;;;;19.97;12.57;;;-0.20;99.90;;;;;;5047166;28;20275;-35
2022/12/13 03:38:00;;;;;;;24.13;13.10;;;-0.30;99.90;;;;;;5047113;28;20223;-35
2022/12/13 03:40:28;;;;;;;18.10;12.60;;;-0.30;99.90;;;;;;5045616;28;20435;-34
2022/12/13 03:42:54;;;;;;;20.60;13.00;;;-0.60;99.90;;;;;;5046747;28;20420;-37
2022/12/13 03:45:20;;;;;;;24.77;12.77;;;-0.40;99.90;;;;;;5047267;28;20447;-33
2022/12/13 03:47:46;;;;;;;18.07;13.03;;;-0.50;99.90;;;;;;5046886;28;20966;-35
2022/12/13 03:50:11;;;;;;;18.00;13.03;;;-0.40;99.90;;;;;;5046624;28;20201;-33
2022/12/13 03:52:37;;;;;;;19.23;13.40;;;-0.50;99.90;;;;;;5046108;28;20391;-33
2022/12/13 03:55:03;;;;;;;22.00;14.10;;;-0.40;99.90;;;;;;5045440;28;20379;-33
2022/12/13 03:57:29;;;;;;;21.80;13.10;;;-0.40;99.90;;;;;;5046918;28;20284;-37
2022/12/13 03:59:54;;;;;;;20.37;12.67;;;-0.50;99.90;;;;;;5045215;28;20428;-32
2022/12/13 04:02:20;;;;;;;19.87;12.47;;;-0.40;99.90;;;;;;5046697;28;20268;-37
2022/12/13 04:04:46;;;;;;;20.20;13.27;;;-0.40;99.90;;;;;;5046469;28;20193;-36
2022/12/13 04:07:11;;;;;;;21.20;12.57;;;-0.40;99.90;;;;;;5045349;28;20202;-34
2022/12/13 04:09:37;;;;;;;20.57;13.20;;;-0.50;99.90;;;;;;5044804;28;20680;-34
2022/12/13 04:14:47;;;;;;;21.07;12.30;;;-0.50;99.90;;;;;;5046700;28;20174;-37
2022/12/13 04:17:12;;;;;;;20.17;12.67;;;-0.40;99.90;;;;;;5046738;28;20436;-33
2022/12/13 04:19:38;;;;;;;19.07;12.10;;;-0.50;99.90;;;;;;5046651;28;20182;-35
2022/12/13 04:22:03;;;;;;;21.83;13.07;;;-0.70;99.90;;;;;;5046277;28;20189;-33
2022/12/13 04:24:29;;;;;;;21.67;12.80;;;-0.60;99.90;;;;;;5046577;28;20177;-35
2022/12/13 04:26:55;;;;;;;18.30;12.03;;;-0.40;99.90;;;;;;5046352;28;20201;-33
2022/12/13 04:29:20;;;;;;;20.20;13.00;;;-0.60;99.90;;;;;;5046379;28;20313;-36
2022/12/13 04:31:46;;;;;;;19.20;12.50;;;-0.80;99.90;;;;;;5046110;28;20526;-38
2022/12/13 04:34:12;;;;;;;20.93;13.23;;;-0.60;99.90;;;;;;5047149;28;20178;-32
2022/12/13 04:36:37;;;;;;;20.50;11.90;;;-0.60;99.90;;;;;;5046423;28;20189;-32
2022/12/13 04:39:04;;;;;;;17.17;12.80;;;-0.60;99.90;;;;;;5045796;28;20189;-38
2022/12/13 04:41:35;;;;;;;19.10;12.13;;;-0.80;99.90;;;;;;5046722;28;20257;-32
2022/12/13 04:44:02;;;;;;;18.20;11.70;;;-0.90;99.90;;;;;;5046025;28;20395;-32
2022/12/13 04:46:28;;;;;;;18.10;11.40;;;-0.80;99.90;;;;;;5046897;28;20439;-38
2022/12/13 04:48:54;;;;;;;18.43;11.77;;;-0.70;99.90;;;;;;5045721;28;20398;-38
2022/12/13 04:51:19;;;;;;;24.30;12.77;;;-0.80;99.90;;;;;;5046645;28;20383;-38
2022/12/13 04:53:45;;;;;;;22.27;12.73;;;-0.90;99.90;;;;;;5049721;28;20245;-35
2022/12/13 04:56:11;;;;;;;19.77;12.53;;;-0.70;99.90;;;;;;5050241;28;20528;-36
2022/12/13 04:58:36;;;;;;;18.67;11.13;;;-0.80;99.90;;;;;;5049686;28;20209;-37
2022/12/13 05:01:05;;;;;;;20.83;12.80;;;-0.80;99.90;;;;;;5049705;28;20193;-35
2022/12/13 05:03:31;;;;;;;21.07;11.87;;;-1.00;99.90;;;;;;5049646;28;20188;-37
2022/12/13 05:05:57;;;;;;;17.27;12.37;;;-0.90;99.90;;;;;;5049533;28;20436;-38
2022/12/13 05:08:22;;;;;;;19.13;13.30;;;-0.80;99.90;;;;;;5048097;28;20189;-36
2022/12/13 05:10:48;;;;;;;19.47;11.33;;;-1.00;99.90;;;;;;5049709;28;20209;-38
2022/12/13 05:13:14;;;;;;;19.73;12.47;;;-0.70;99.90;;;;;;5048123;28;20663;-32
2022/12/13 05:15:39;;;;;;;20.57;11.60;;;-0.80;99.90;;;;;;5049872;28;20178;-36
2022/12/13 05:18:06;;;;;;;17.33;12.17;;;-0.70;99.90;;;;;;5047847;28;20182;-36
2022/12/13 05:20:34;;;;;;;19.40;12.20;;;-0.70;99.90;;;;;;5049015;28;20288;-40
2022/12/13 05:23:00;;;;;;;16.90;12.37;;;-0.80;99.90;;;;;;5048883;28;20420;-38
2022/12/13 05:25:26;;;;;;;20.77;13.40;;;-0.70;99.90;;;;;;5048066;28;20491;-36
2022/12/13 05:27:52;;;;;;;22.17;13.30;;;-0.90;99.90;;;;;;5047728;28;20204;-36
2022/12/13 05:30:18;;;;;;;19.47;12.27;;;-0.90;99.90;;;;;;5049037;28;20468;-37
2022/12/13 05:32:44;;;;;;;18.47;12.33;;;-1.00;99.90;;;;;;5049150;28;20445;-35
2022/12/13 05:35:14;;;;;;;18.00;12.47;;;-0.90;99.90;;;;;;5048781;28;20428;-37
2022/12/13 05:37:40;;;;;;;20.13;13.00;;;-1.00;99.90;;;;;;5049420;28;20222;-35
2022/12/13 05:40:07;;;;;;;17.37;11.13;;;-1.20;99.90;;;;;;5048494;28;20669;-33
2022/12/13 05:42:33;;;;;;;24.37;15.13;;;-1.30;99.90;;;;;;5047480;28;20454;-35
2022/12/13 05:44:58;;;;;;;20.17;13.00;;;-1.00;99.90;;;;;;5042499;28;20419;-41
2022/12/13 05:47:24;;;;;;;20.47;12.67;;;-1.20;99.90;;;;;;5047471;28;20191;-37
2022/12/13 05:49:50;;;;;;;20.43;12.90;;;-1.30;99.90;;;;;;5044646;28;20217;-35
2022/12/13 05:52:21;;;;;;;19.90;12.70;;;-1.30;99.90;;;;;;5040538;28;20265;-35
2022/12/13 05:54:47;;;;;;;19.50;12.40;;;-1.20;99.90;;;;;;5048049;28;20824;-35
2022/12/13 05:57:14;;;;;;;23.10;14.50;;;-1.00;99.90;;;;;;5048526;28;20462;-32
2022/12/13 05:59:39;;;;;;;21.20;13.60;;;-1.50;99.90;;;;;;5048586;28;20456;-38
2022/12/13 06:02:05;;;;;;;22.67;13.17;;;-1.40;99.90;;;;;;5047376;28;20423;-36
2022/12/13 06:04:31;;;;;;;18.90;13.27;;;-1.50;99.90;;;;;;5048428;28;20190;-32
2022/12/13 06:06:56;;;;;;;19.60;13.30;;;-1.40;99.90;;;;;;5047232;28;20181;-39
2022/12/13 06:09:23;;;;;;;21.77;12.90;;;-1.30;99.90;;;;;;5041082;28;20748;-34
2022/12/13 06:11:48;;;;;;;24.27;13.37;;;-1.40;99.90;;;;;;5048077;28;20589;-36
2022/12/13 06:14:14;;;;;;;19.93;12.33;;;-1.20;99.90;;;;;;5047988;28;20431;-37
2022/12/13 06:16:40;;;;;;;19.50;13.60;;;-1.40;99.90;;;;;;5048255;28;20260;-35
2022/12/13 06:19:06;;;;;;;19.97;12.87;;;-1.50;99.90;;;;;;5048076;28;20499;-37
2022/12/13 06:21:33;;;;;;;21.07;12.60;;;-1.30;99.90;;;;;;5048534;28;20635;-39
2022/12/13 06:23:58;;;;;;;21.13;13.77;;;-1.50;99.90;;;;;;5028240;28;20727;-36
2022/12/13 06:26:24;;;;;;;23.63;14.20;;;-1.50;99.90;;;;;;5028375;28;20409;-33
2022/12/13 06:28:50;;;;;;;22.80;14.00;;;-1.50;99.90;;;;;;5040911;28;20182;-33
2022/12/13 06:31:15;;;;;;;21.90;13.57;;;-1.50;99.90;;;;;;5047733;28;20166;-35
2022/12/13 06:33:41;;;;;;;20.80;13.80;;;-1.50;99.90;;;;;;5047991;28;20185;-33
2022/12/13 06:36:07;;;;;;;20.73;13.73;;;-1.70;99.90;;;;;;5047749;28;20178;-35
2022/12/13 06:38:33;;;;;;;22.03;14.33;;;-1.50;99.90;;;;;;5042978;28;20869;-33
2022/12/13 06:41:15;;;;;;;37.57;19.77;;;-1.80;99.90;;;;;;5038901;28;20672;-33
2022/12/13 06:43:46;;;;;;;48.67;29.47;;;-1.80;99.90;;;;;;5045261;28;20370;-33
2022/12/13 06:46:12;;;;;;;99.97;51.50;;;-1.80;99.90;;;;;;5044434;28;20431;-36
2022/12/13 06:48:41;;;;;;;175.10;82.67;;;-1.80;99.90;;;;;;5047244;28;20420;-36
2022/12/13 06:51:07;;;;;;;165.17;78.60;;;-1.70;99.90;;;;;;5047886;28;20432;-33
2022/12/13 06:53:35;;;;;;;135.63;64.87;;;-1.80;99.90;;;;;;5045798;28;20424;-36
2022/12/13 06:56:12;;;;;;;141.53;71.57;;;-1.70;99.90;;;;;;5048146;28;20409;-36
2022/12/13 06:58:38;;;;;;;103.80;54.60;;;-1.70;99.90;;;;;;5046629;28;20405;-33
2022/12/13 07:01:18;;;;;;;69.90;37.50;;;-1.60;99.90;;;;;;5040560;28;20416;-35
2022/12/13 07:03:44;;;;;;;41.77;26.10;;;-1.70;99.90;;;;;;5036325;28;20515;-37
2022/12/13 07:06:15;;;;;;;36.17;22.30;;;-1.50;99.90;;;;;;5036635;28;20523;-33
2022/12/13 07:08:42;;;;;;;29.40;16.80;;;-1.60;99.90;;;;;;5025690;28;20453;-34
2022/12/13 07:11:16;;;;;;;34.33;21.70;;;-1.60;99.90;;;;;;5034064;28;20920;-32
2022/12/13 07:13:42;;;;;;;33.67;19.63;;;-1.60;99.90;;;;;;5045626;28;20428;-36
2022/12/13 07:16:09;;;;;;;32.33;20.73;;;-1.70;99.90;;;;;;5046736;28;20750;-38
2022/12/13 07:18:34;;;;;;;32.20;19.63;;;-1.40;99.90;;;;;;5046223;28;20501;-34
2022/12/13 07:21:06;;;;;;;29.33;18.60;;;-1.50;99.90;;;;;;5046714;28;20412;-34
2022/12/13 07:23:34;;;;;;;24.30;17.00;;;-1.50;99.90;;;;;;5039958;28;20425;-36
2022/12/13 07:26:00;;;;;;;22.77;14.97;;;-1.40;99.90;;;;;;5035401;28;20426;-36
2022/12/13 07:28:25;;;;;;;25.97;14.53;;;-1.50;99.90;;;;;;5036706;28;20420;-37
2022/12/13 07:30:51;;;;;;;23.20;14.90;;;-1.40;99.90;;;;;;5036821;28;20460;-38
2022/12/13 07:33:17;;;;;;;22.93;14.27;;;-1.50;99.90;;;;;;5037637;28;20570;-35
2022/12/13 07:35:43;;;;;;;23.23;15.10;;;-1.60;99.90;;;;;;5039462;28;20324;-35
2022/12/13 07:38:10;;;;;;;23.50;15.40;;;-1.80;99.90;;;;;;5040355;28;20213;-36
2022/12/13 07:40:37;;;;;;;20.10;13.73;;;-1.80;99.90;;;;;;5027312;28;20895;-36
2022/12/13 07:43:04;;;;;;;22.80;15.63;;;-1.70;99.90;;;;;;5027343;28;20402;-37
2022/12/13 07:45:29;;;;;;;24.50;13.43;;;-1.50;99.90;;;;;;5027724;28;20443;-38
2022/12/13 07:47:55;;;;;;;20.27;13.90;;;-1.60;99.90;;;;;;5026110;28;20516;-34
2022/12/13 07:50:22;;;;;;;19.23;13.73;;;-1.60;99.90;;;;;;5032665;28;20216;-38
2022/12/13 07:52:49;;;;;;;25.73;14.30;;;-1.40;99.90;;;;;;5039353;28;20665;-39
2022/12/13 07:55:16;;;;;;;22.00;13.90;;;-1.40;99.90;;;;;;5047466;28;20698;-37
2022/12/13 07:57:45;;;;;;;22.10;13.77;;;-1.40;99.90;;;;;;5046520;28;20412;-41
2022/12/13 08:00:11;;;;;;;22.87;12.57;;;-1.50;99.90;;;;;;5047468;28;20421;-37
2022/12/13 08:02:38;;;;;;;19.87;13.37;;;-1.50;99.90;;;;;;5047278;28;20398;-32
2022/12/13 08:05:04;;;;;;;21.20;13.83;;;-1.50;99.90;;;;;;5040509;28;20796;-36
2022/12/13 08:07:29;;;;;;;20.67;12.83;;;-1.40;99.90;;;;;;5026348;28;20453;-37
2022/12/13 08:09:55;;;;;;;24.03;13.20;;;-1.50;99.90;;;;;;5026898;28;20576;-39
2022/12/13 08:12:21;;;;;;;20.10;13.30;;;-1.40;99.90;;;;;;5027272;28;20178;-37
2022/12/13 08:14:46;;;;;;;18.20;13.43;;;-1.20;99.90;;;;;;5027421;28;20182;-33
2022/12/13 08:17:12;;;;;;;22.30;13.37;;;-1.20;99.90;;;;;;5025973;28;20662;-37
2022/12/13 08:19:38;;;;;;;25.20;14.10;;;-1.20;99.90;;;;;;5026710;28;20613;-39
2022/12/13 08:22:03;;;;;;;20.50;12.70;;;-1.30;99.90;;;;;;5020558;28;20480;-35
2022/12/13 08:24:30;;;;;;;22.50;13.70;;;-1.10;99.90;;;;;;5024044;28;20182;-40
2022/12/13 08:27:00;;;;;;;24.70;14.90;;;-1.20;99.90;;;;;;5028702;28;20178;-32
2022/12/13 08:29:27;;;;;;;20.33;13.37;;;-1.40;99.90;;;;;;5047675;28;20470;-37
2022/12/13 08:31:52;;;;;;;20.50;12.67;;;-1.00;99.90;;;;;;5038171;28;20501;-37
2022/12/13 08:34:18;;;;;;;22.20;15.27;;;-1.00;99.90;;;;;;5039953;28;20849;-33
2022/12/13 08:36:43;;;;;;;20.90;13.93;;;-0.80;99.90;;;;;;5040975;28;20561;-37
2022/12/13 08:39:09;;;;;;;20.17;14.07;;;-0.50;99.90;;;;;;5035097;28;20579;-33
2022/12/13 08:41:35;;;;;;;20.53;13.43;;;-0.30;99.90;;;;;;5032447;28;20198;-35
2022/12/13 08:44:00;;;;;;;18.90;12.57;;;-0.30;99.90;;;;;;5049122;28;20186;-34
2022/12/13 08:46:26;;;;;;;19.50;12.43;;;0.10;99.90;;;;;;5050424;28;20574;-31
2022/12/13 08:48:54;;;;;;;21.80;12.97;;;0.40;99.90;;;;;;5049852;28;20190;-38
2022/12/13 08:51:23;;;;;;;21.63;13.93;;;0.40;99.90;;;;;;5050767;28;20178;-37
2022/12/13 08:53:50;;;;;;;18.80;12.73;;;0.70;99.90;;;;;;5050285;28;20452;-32
2022/12/13 08:56:20;;;;;;;21.60;14.27;;;1.00;99.90;;;;;;5050521;28;20450;-37
2022/12/13 08:58:50;;;;;;;20.07;12.93;;;1.00;99.90;;;;;;5048413;28;20428;-36
2022/12/13 09:01:15;;;;;;;20.63;13.43;;;1.30;99.90;;;;;;5050279;28;20925;-38
2022/12/13 09:03:41;;;;;;;21.30;13.47;;;1.30;99.90;;;;;;5050029;28;20560;-36
2022/12/13 09:06:13;;;;;;;21.07;12.50;;;1.50;99.90;;;;;;5050098;28;20197;-36
2022/12/13 09:08:39;;;;;;;22.57;14.43;;;1.60;99.90;;;;;;5047281;28;20182;-35
2022/12/13 09:11:06;;;;;;;21.27;12.47;;;1.80;99.90;;;;;;5050222;28;20472;-39
2022/12/13 09:13:34;;;;;;;19.90;13.90;;;1.90;99.90;;;;;;5049680;28;20443;-36
2022/12/13 09:16:23;;;;;;;19.83;12.17;;;2.10;99.90;;;;;;5050034;28;20440;-39
2022/12/13 09:18:52;;;;;;;17.97;13.13;;;2.30;99.90;;;;;;5049755;28;20512;-35
2022/12/13 09:21:18;;;;;;;17.20;12.70;;;2.20;99.90;;;;;;5050003;28;20486;-37
2022/12/13 09:23:44;;;;;;;19.00;12.23;;;2.40;99.90;;;;;;5048295;28;20412;-38
2022/12/13 09:26:12;;;;;;;16.07;11.70;;;2.70;99.90;;;;;;5049906;28;20779;-38
2022/12/13 09:28:38;;;;;;;18.33;12.40;;;2.70;99.90;;;;;;5049007;28;20451;-31
2022/12/13 09:31:12;;;;;;;18.97;12.70;;;2.90;99.90;;;;;;5050238;28;20491;-33
2022/12/13 09:33:38;;;;;;;17.40;12.00;;;2.90;99.90;;;;;;5049327;28;20815;-36
2022/12/13 09:36:06;;;;;;;19.13;13.53;;;3.10;99.90;;;;;;5049928;28;20507;-36
2022/12/13 09:38:35;;;;;;;17.63;13.03;;;3.20;99.90;;;;;;5049494;28;20462;-36
2022/12/13 09:41:42;;;;;;;16.93;11.90;;;3.30;99.90;;;;;;5049907;28;20444;-37
2022/12/13 09:44:20;;;;;;;17.23;12.33;;;3.50;99.90;;;;;;5049119;28;20522;-36
2022/12/13 09:46:47;;;;;;;19.30;12.40;;;3.80;99.90;;;;;;5049707;28;20408;-34
2022/12/13 09:49:34;;;;;;;15.83;12.30;;;4.00;99.90;;;;;;5049178;28;20734;-36
2022/12/13 09:52:02;;;;;;;18.37;12.57;;;4.20;99.90;;;;;;5047818;28;20507;-32
2022/12/13 09:54:28;;;;;;;18.00;13.03;;;4.20;99.90;;;;;;5047571;28;20480;-35
2022/12/13 09:56:55;;;;;;;17.70;12.67;;;4.50;99.90;;;;;;5047906;28;20855;-33
2022/12/13 09:59:30;;;;;;;18.80;13.00;;;4.60;99.90;;;;;;5048854;28;20431;-33
2022/12/13 10:02:01;;;;;;;17.00;12.63;;;4.60;99.80;;;;;;5048924;28;20551;-36
2022/12/13 10:04:28;;;;;;;17.87;12.17;;;5.00;98.90;;;;;;5048682;28;20937;-35
2022/12/13 10:06:54;;;;;;;17.30;13.10;;;4.80;98.80;;;;;;5048491;28;20423;-37
2022/12/13 10:09:21;;;;;;;17.80;11.97;;;5.00;98.20;;;;;;5048467;28;20809;-39
2022/12/13 10:11:52;;;;;;;17.10;12.43;;;5.10;98.50;;;;;;5049300;28;20477;-36
2022/12/13 10:14:28;;;;;;;17.60;12.23;;;5.40;97.90;;;;;;5048507;28;20777;-34
2022/12/13 10:16:58;;;;;;;16.57;12.07;;;5.40;97.90;;;;;;5048768;28;20420;-34
2022/12/13 10:19:42;;;;;;;18.87;13.20;;;5.50;97.90;;;;;;5048439;28;20408;-39
2022/12/13 10:22:14;;;;;;;14.30;11.43;;;5.80;97.60;;;;;;5048795;28;20420;-34
2022/12/13 10:24:55;;;;;;;17.00;12.70;;;5.80;96.60;;;;;;5048435;28;20428;-36
2022/12/13 10:27:28;;;;;;;16.70;11.50;;;5.60;96.00;;;;;;5036176;28;20433;-35
2022/12/13 10:30:11;;;;;;;15.80;12.60;;;5.60;95.80;;;;;;5045608;28;20824;-38
2022/12/13 10:32:55;;;;;;;16.90;10.97;;;5.10;95.20;;;;;;5048093;28;20949;-33
2022/12/13 10:35:27;;;;;;;14.20;10.70;;;5.00;96.00;;;;;;5046115;28;20559;-36
2022/12/13 10:37:53;;;;;;;16.00;12.00;;;5.10;96.40;;;;;;5048047;28;20428;-37
2022/12/13 10:40:39;;;;;;;15.80;10.73;;;5.10;96.40;;;;;;5041564;28;20463;-35
2022/12/13 10:43:10;;;;;;;14.47;10.57;;;5.30;95.80;;;;;;5040346;28;20435;-35
2022/12/13 10:45:36;;;;;;;16.50;11.97;;;5.10;95.10;;;;;;5047295;28;20408;-36
2022/12/13 10:48:03;;;;;;;15.70;11.00;;;4.80;94.80;;;;;;5047856;28;20417;-35
2022/12/13 10:50:29;;;;;;;13.77;10.20;;;4.80;96.00;;;;;;5047758;28;20245;-33
2022/12/13 10:52:57;;;;;;;13.30;10.50;;;4.60;95.90;;;;;;5047783;28;20754;-36
2022/12/13 10:55:31;;;;;;;13.20;10.50;;;4.70;96.40;;;;;;5046737;28;20424;-36
2022/12/13 10:58:08;;;;;;;14.17;10.00;;;4.40;96.00;;;;;;5047792;28;20838;-38
2022/12/13 11:00:40;;;;;;;17.23;11.20;;;4.10;95.70;;;;;;5047724;28;20424;-35
2022/12/13 11:03:08;;;;;;;12.80;9.80;;;4.00;96.30;;;;;;5047476;28;20415;-34
2022/12/13 11:05:39;;;;;;;15.00;10.43;;;3.90;96.20;;;;;;5048007;28;20818;-39
2022/12/13 11:08:13;;;;;;;15.17;10.77;;;3.70;96.50;;;;;;5046902;28;20420;-38
2022/12/13 11:10:39;;;;;;;15.90;10.87;;;3.50;97.10;;;;;;5047013;28;20463;-37
2022/12/13 11:13:07;;;;;;;17.00;10.63;;;3.80;98.10;;;;;;5047275;28;20421;-36
2022/12/13 11:15:36;;;;;;;14.80;9.80;;;3.60;97.80;;;;;;5047801;28;20644;-37
2022/12/13 11:18:06;;;;;;;15.00;11.20;;;3.40;97.90;;;;;;5047416;28;20416;-36
2022/12/13 11:20:36;;;;;;;14.17;10.60;;;3.40;98.20;;;;;;5047046;28;20605;-36
2022/12/13 11:23:11;;;;;;;15.10;11.73;;;3.40;98.30;;;;;;5047057;28;20416;-35
2022/12/13 11:25:42;;;;;;;14.93;10.40;;;3.40;98.40;;;;;;5047888;28;20419;-33
2022/12/13 11:28:26;;;;;;;14.63;9.93;;;3.30;98.60;;;;;;5042782;28;20483;-35
2022/12/13 11:31:18;;;;;;;17.83;9.90;;;3.50;99.00;;;;;;5020943;28;20467;-38
2022/12/13 11:34:09;;;;;;;15.17;9.97;;;3.40;98.90;;;;;;5047102;28;20405;-37
2022/12/13 11:36:47;;;;;;;13.47;9.80;;;3.50;98.20;;;;;;5044364;28;20425;-32
2022/12/13 11:39:31;;;;;;;15.30;10.77;;;3.40;98.50;;;;;;5047011;28;20424;-37
2022/12/13 11:42:15;;;;;;;16.70;11.07;;;3.60;99.00;;;;;;5047284;28;20447;-33
2022/12/13 11:45:01;;;;;;;16.17;8.83;;;4.10;98.60;;;;;;5039661;28;20757;-37
2022/12/13 11:47:47;;;;;;;16.00;10.80;;;4.40;98.10;;;;;;5036457;28;20416;-32
2022/12/13 11:50:24;;;;;;;13.20;9.77;;;4.70;97.60;;;;;;5036829;28;20449;-37
2022/12/13 11:52:58;;;;;;;15.33;10.20;;;4.80;96.70;;;;;;5036753;28;20409;-33
2022/12/13 11:55:36;;;;;;;14.70;10.23;;;5.40;96.60;;;;;;5038773;28;20985;-33
2022/12/13 11:58:21;;;;;;;17.03;11.70;;;7.30;95.90;;;;;;5047255;28;20613;-35
2022/12/13 12:00:55;;;;;;;14.13;10.60;;;10.00;91.80;;;;;;5047212;28;20420;-38
2022/12/13 12:03:31;;;;;;;17.40;11.53;;;11.90;83.10;;;;;;5051370;28;20424;-39
2022/12/13 12:06:11;;;;;;;14.40;11.77;;;13.70;70.50;;;;;;5050406;28;20450;-34
2022/12/13 12:08:45;;;;;;;10.90;9.30;;;12.90;63.30;;;;;;5050081;28;20679;-33
2022/12/13 12:11:34;;;;;;;11.07;9.40;;;11.90;60.50;;;;;;5048587;28;20624;-32
2022/12/13 12:14:09;;;;;;;10.97;8.97;;;10.40;60.20;;;;;;5051028;28;20416;-37
2022/12/13 12:16:38;;;;;;;12.13;9.60;;;9.20;64.90;;;;;;5049384;28;20974;-32
2022/12/13 12:19:13;;;;;;;13.80;10.63;;;8.10;69.40;;;;;;5051608;28;20408;-38
2022/12/13 12:22:00;;;;;;;13.63;9.93;;;7.30;72.60;;;;;;5051621;28;20411;-33
2022/12/13 12:24:48;;;;;;;13.13;9.27;;;6.70;75.80;;;;;;5051322;28;20823;-38
2022/12/13 12:27:51;;;;;;;12.00;9.57;;;6.00;80.10;;;;;;5051308;28;20778;-35
2022/12/13 12:30:21;;;;;;;14.33;10.43;;;5.70;83.80;;;;;;5030875;28;20452;-35
2022/12/13 12:33:02;;;;;;;11.10;8.97;;;5.20;88.00;;;;;;5030849;28;20435;-36
2022/12/13 12:35:47;;;;;;;14.57;9.13;;;5.00;90.10;;;;;;5013491;28;20422;-32
2022/12/13 12:38:21;;;;;;;15.50;10.33;;;4.90;90.30;;;;;;5031048;28;20405;-32
2022/12/13 12:41:24;;;;;;;15.37;9.60;;;4.40;91.40;;;;;;5031102;28;20774;-35
2022/12/13 12:44:21;;;;;;;18.00;10.00;;;4.50;92.40;;;;;;5030947;28;20888;-35
2022/12/13 12:47:19;;;;;;;17.13;11.67;;;4.20;93.50;;;;;;5021707;28;20435;-33
2022/12/13 12:50:05;;;;;;;15.67;10.67;;;4.00;93.70;;;;;;5030877;28;20457;-35
2022/12/13 12:52:43;;;;;;;15.43;10.60;;;3.70;94.90;;;;;;5049554;28;20721;-39
2022/12/13 12:55:27;;;;;;;13.90;9.60;;;3.80;95.60;;;;;;5051018;28;20500;-35